Terminal Aerodrome Forecast
Issued by NWS

Home | Current Version | Previous Version | Text Only | Print | Product List | Glossary On
Versions: 1 2 3 4 5 6 7 8 9 10 11 12 13
318
FTUS44 KLIX 191146
TAFMSY
TAF
KMSY 191146Z 1912/2012 26003KT P6SM SCT050 BKN250
     FM191800 36004KT P6SM VCTS BKN040CB
     FM192100 30004KT P6SM BKN130 PROB30 1921/1923 4SM -TSRA
      OVC040CB
     FM192300 18005KT P6SM BKN150 PROB30 1923/1924 4SM -TSRA
      OVC040CB
     FM200600 25004KT P6SM FEW200=

USA.gov is the U.S. government's official web portal to all federal, state and local government web resources and services.